Flight Track Log - Related Links

Times and Time Zones

All times are in EDT time to prevent confusion due to time zone crossing. See the EJA619 flight status page for this flight to view local times or setup timezone preferences in your user account.

Time Position Orientation Groundspeed Altitude Reporting Facility
EDT Latitude Longitude Course Direction KTS MPH feet Rate Location/Type
Tue 01:30:53 PM 39.8667 -75.2667 270° West 142 163 700  Level Philadelphia TRACON
Tue 01:32:36 PM 39.8667 -75.3667 270° West 187 215 6,800 3,198 Climbing Philadelphia TRACON
Tue 01:33:40 PM 39.9311 -75.3944 342° North 240 276 9,600 1,512 Climbing New York Center
Tue 01:34:43 PM 39.9964 -75.4342 335° Northwest 271 312 10,000 900 Climbing New York Center
Tue 01:35:40 PM 40.0900 -75.4867 337° Northwest 321 369 11,400 1,525 Climbing New York Center
Tue 01:36:41 PM 40.1614 -75.5294 335° Northwest 321 369 13,000 793 Climbing New York Center
Tue 01:37:41 PM 40.2444 -75.5894 331° Northwest 333 383 13,000  Level New York Center
Tue 01:38:40 PM 40.3453 -75.6183 348° North 338 389 13,000  Level New York Center
Tue 01:39:41 PM 40.4450 -75.6253 357° North 343 395 13,000  Level New York Center
Tue 01:40:41 PM 40.5447 -75.6350 356° North 354 407 13,000  Level New York Center
Tue 01:41:39 PM 40.6361 -75.6417 357° North 359 413 13,000  Level New York Center
Tue 01:42:39 PM 40.7339 -75.6458 358° North 365 420 13,000  Level New York Center
Tue 01:43:40 PM 40.8486 -75.6431 North 365 420 13,000  Level New York Center
Tue 01:44:40 PM 40.9475 -75.6172 11° North 365 420 13,000  Level New York Center
Tue 01:45:40 PM 41.0486 -75.5914 11° North 371 427 13,000  Level New York Center
Tue 01:46:41 PM 41.1475 -75.5681 10° North 371 427 13,000  Level New York Center
Tue 01:47:39 PM 41.2400 -75.5442 11° North 371 427 13,000  Level New York Center
Tue 01:49:31 PM 41.3750 -75.3447 48° Northeast 372 428 13,000  Level Boston Center
Tue 01:50:43 PM 41.4264 -75.2169 62° Northeast 383 441 13,000  Level Boston Center
Tue 01:51:43 PM 41.4828 -75.0367 67° East 392 451 13,000  Level Boston Center
Tue 01:52:43 PM 41.5189 -74.9133 69° East 397 457 13,000  Level Boston Center
Tue 01:53:43 PM 41.5636 -74.7625 68° East 405 466 13,000  Level Boston Center
Tue 01:54:43 PM 41.5950 -74.6553 69° East 399 459 13,000  Level Boston Center
Tue 01:55:43 PM 41.6311 -74.5147 71° East 394 453 13,000 50 Level Boston Center
Tue 01:56:43 PM 41.6547 -74.3600 78° East 389 448 13,100 50 Climbing Boston Center
Tue 01:57:43 PM 41.6678 -74.1992 84° East 389 448 13,100  Level Boston Center
Tue 01:58:43 PM 41.6678 -74.0547 90° East 384 442 13,100 -100 Level Boston Center
Tue 01:59:43 PM 41.6883 -73.9244 78° East 384 442 12,900 -100 Descending Boston Center
Tue 02:00:43 PM 41.6842 -73.7633 92° East 389 448 12,900  Level Boston Center
Tue 02:01:43 PM 41.6669 -73.6211 99° East 389 448 12,900 50 Level Boston Center
Tue 02:02:43 PM 41.6475 -73.4792 100° East 389 448 13,000  Climbing Boston Center
Tue 02:03:43 PM 41.6342 -73.3372 97° East 389 448 12,900  Descending Boston Center
Tue 02:04:43 PM 41.6350 -73.2094 89° East 389 448 13,000  Climbing Boston Center
Tue 02:05:43 PM 41.6256 -73.0511 95° East 384 442 12,900 -50 Descending Boston Center
Tue 02:06:43 PM 41.5908 -72.9286 111° Southeast 384 442 12,900  Level Boston Center
Tue 02:07:55 PM 41.5494 -72.7842 111° Southeast 390 449 12,900 45 Level Boston Center
Tue 02:08:55 PM 41.5019 -72.6231 111° Southeast 383 441 13,000 45 Climbing Boston Center
Tue 02:10:07 PM 41.4875 -72.4817 98° East 383 441 13,000 -54 Level Boston Center
Tue 02:10:47 PM 41.4939 -72.3569 86° East 389 448 12,900 -923 Descending Boston Center
Tue 02:11:38 PM 41.5042 -72.2378 83° East 384 442 11,600 -1,101 Descending Boston Center
Tue 02:12:36 PM 41.5100 -72.0992 87° East 379 436 10,900 -404 Descending Boston Center
Tue 02:13:07 PM 41.5119 -72.0297 88° East 383 441 11,000 -787 Climbing Boston Center
Tue 02:13:37 PM 41.5136 -71.9633 88° East 369 425 10,100 -1,200 Descending Boston Center
Tue 02:14:07 PM 41.5178 -71.9300 81° East 368 423 9,800 -1,574 Descending Boston Center
Tue 02:14:38 PM 41.5214 -71.8494 87° East 320 368 8,500 -1,953 Descending Boston Center
Tue 02:15:33 PM 41.5314 -71.7469 83° East 307 353 7,000 -1,651 Descending Boston Center
Tue 02:16:27 PM 41.5872 -71.6825 41° Northeast 292 336 5,500 -1,043 Descending Boston Center
Tue 02:17:28 PM 41.6472 -71.6206 38° Northeast 266 306 5,000 -295 Descending Boston Center
Tue 02:18:29 PM 41.7072 -71.5642 35° Northeast 250 288 4,900  Descending Boston Center
Tue 02:19:30 PM 41.7631 -71.5078 37° Northeast 249 287 5,000 -836 Climbing Boston Center
Tue 02:20:31 PM 41.8167 -71.4539 37° Northeast 245 282 3,200 -938 Descending Boston Center
Tue 02:21:38 PM 41.8558 -71.3922 50° Northeast 215 247 3,000 -236 Descending Boston Center
Tue 02:22:38 PM 41.8158 -71.3564 146° Southeast 182 209 2,700 -793 Descending Boston Center
Tue 02:23:39 PM 41.7764 -71.3850 208° Southwest 159 183 1,400 -1,138 Descending Boston Center
Tue 02:24:34 PM 41.7456 -71.4078 209° Southwest 141 162 500 -982 Descending Boston Center
Tue 02:26:00 PM 41.7167 -71.4167 211° Southwest  Level FlightAware Approximate
Tue 02:33:00 PM 41.7240 -71.4282 211° Southwest  Level Estimated

Login

Don't have an account? Register now (free) for customized features, flight alerts, and more!